createdAt,value
2023-01-10T00:01:24.698Z,96846.16
2023-01-10T00:05:27.316Z,96857.78
2023-01-10T00:09:31.334Z,96861.28
2023-01-10T00:13:33.902Z,96870.13
2023-01-10T00:17:36.542Z,96877.72
2023-01-10T00:21:40.135Z,96894.41
2023-01-10T00:25:44.124Z,96878.53
2023-01-10T00:29:46.981Z,96883.91
2023-01-10T00:33:49.608Z,96913.78
2023-01-10T00:37:57.662Z,96921.97
2023-01-10T00:42:19.147Z,96927.16
2023-01-10T00:46:21.936Z,96937.00
2023-01-10T00:50:24.564Z,96935.53
2023-01-10T00:54:27.290Z,96941.25
2023-01-10T00:58:31.239Z,96956.94
2023-01-10T01:02:33.846Z,96955.06
2023-01-10T01:06:36.974Z,96976.75
2023-01-10T01:10:39.734Z,96984.97
2023-01-10T01:14:43.675Z,96993.81
2023-01-10T01:18:46.332Z,96998.97
2023-01-10T01:22:48.979Z,97005.34
2023-01-10T01:26:51.632Z,97016.69
2023-01-10T01:30:55.644Z,97015.41
2023-01-10T01:34:58.483Z,97016.78
2023-01-10T01:39:01.166Z,97030.59
2023-01-10T01:43:03.765Z,97034.59
2023-01-10T01:47:09.941Z,97029.44
2023-01-10T01:51:18.717Z,97033.75
2023-01-10T01:55:22.098Z,97041.38
2023-01-10T01:59:29.748Z,97051.03
2023-01-10T02:03:34.268Z,97051.09
2023-01-10T02:07:39.008Z,97059.47
2023-01-10T02:11:41.729Z,97068.53
2023-01-10T02:15:44.587Z,97071.38
2023-01-10T02:19:53.604Z,97078.72
2023-01-10T02:24:25.111Z,97079.38
2023-01-10T02:28:52.538Z,97084.09
2023-01-10T02:33:05.544Z,97088.44
2023-01-10T02:37:15.352Z,97092.41
2023-01-10T02:41:28.008Z,97094.44
2023-01-10T02:45:34.971Z,97103.09
2023-01-10T02:49:44.136Z,97106.06
2023-01-10T02:53:50.409Z,97112.91
2023-01-10T02:58:02.934Z,97123.22
2023-01-10T03:02:16.131Z,97126.06
2023-01-10T03:06:24.197Z,97135.88
2023-01-10T03:10:32.015Z,97141.28
2023-01-10T03:14:37.251Z,97142.31
2023-01-10T03:18:44.474Z,97157.47
2023-01-10T03:22:49.066Z,97154.59
2023-01-10T03:26:58.293Z,97164.63
2023-01-10T03:31:05.441Z,97173.03
2023-01-10T03:35:09.780Z,97169.56
2023-01-10T03:39:21.951Z,97186.47
2023-01-10T03:43:51.628Z,97199.91
2023-01-10T03:47:57.204Z,97199.25
2023-01-10T03:52:00.682Z,97219.44
2023-01-10T03:56:05.127Z,97226.28
2023-01-10T04:00:09.762Z,97230.44
2023-01-10T04:04:12.633Z,97240.97
2023-01-10T04:08:15.302Z,97241.97
2023-01-10T04:12:19.390Z,97257.66
2023-01-10T04:16:22.118Z,97256.84
2023-01-10T04:20:26.594Z,97261.84
2023-01-10T04:24:29.244Z,97274.41
2023-01-10T04:28:33.346Z,97286.06
2023-01-10T04:32:36.012Z,97284.59
2023-01-10T04:36:38.703Z,97283.78
2023-01-10T04:40:41.371Z,97301.63
2023-01-10T04:44:45.439Z,97300.81
2023-01-10T04:48:48.130Z,97308.84
2023-01-10T04:52:50.795Z,97316.19
2023-01-10T04:56:53.442Z,97321.53
2023-01-10T05:00:57.471Z,97331.75
2023-01-10T05:05:00.208Z,97338.84
2023-01-10T05:09:02.839Z,97347.72
2023-01-10T05:13:05.654Z,97357.78
2023-01-10T05:17:09.655Z,97353.28
2023-01-10T05:21:14.392Z,97360.63
2023-01-10T05:25:17.098Z,97379.00
2023-01-10T05:29:19.757Z,97383.84
2023-01-10T05:33:23.778Z,97394.03
2023-01-10T05:37:26.460Z,97398.69
2023-01-10T05:41:29.160Z,97405.72
2023-01-10T05:45:31.842Z,97408.41
2023-01-10T05:49:35.865Z,97417.09
2023-01-10T05:53:38.524Z,97425.41
2023-01-10T05:57:41.216Z,97423.28
2023-01-10T06:01:43.879Z,97444.28
2023-01-10T06:05:48.987Z,97453.66
2023-01-10T06:09:51.918Z,97461.00
2023-01-10T06:13:55.796Z,97463.84
2023-01-10T06:17:58.762Z,97483.22
2023-01-10T06:22:03.561Z,97490.22
2023-01-10T06:26:06.745Z,97495.88
2023-01-10T06:30:11.671Z,97504.06
2023-01-10T06:34:14.469Z,97511.44
2023-01-10T06:38:18.707Z,97520.13
2023-01-10T06:42:21.371Z,97530.50
2023-01-10T06:46:24.130Z,97534.34
2023-01-10T06:50:26.892Z,97551.88
2023-01-10T06:54:31.709Z,97552.69
2023-01-10T06:58:35.214Z,97582.78
2023-01-10T07:02:38.029Z,97589.59
2023-01-10T07:06:41.598Z,97592.25
2023-01-10T07:10:45.964Z,97606.94
2023-01-10T07:14:48.648Z,97604.94
2023-01-10T07:18:51.341Z,97614.09
2023-01-10T07:22:55.419Z,97636.13
2023-01-10T07:26:59.446Z,97638.50
2023-01-10T07:31:03.256Z,97646.84
2023-01-10T07:35:06.614Z,97654.22
2023-01-10T07:39:09.372Z,97663.22
2023-01-10T07:43:13.516Z,97674.28
2023-01-10T07:47:16.407Z,97687.50
2023-01-10T07:51:19.658Z,97692.66
2023-01-10T07:55:22.469Z,97694.34
2023-01-10T07:59:26.488Z,97711.41
2023-01-10T08:03:29.995Z,97723.47
2023-01-10T08:07:33.131Z,97727.47
2023-01-10T08:11:35.784Z,97729.81
2023-01-10T08:15:39.832Z,97727.66
2023-01-10T08:19:42.454Z,97739.03
2023-01-10T08:23:45.114Z,97750.22
2023-01-10T08:27:47.740Z,97761.44
2023-01-10T08:31:52.206Z,97766.63
2023-01-10T08:35:54.864Z,97768.97
2023-01-10T08:39:57.544Z,97780.19
2023-01-10T08:44:00.798Z,97791.09
2023-01-10T08:48:05.302Z,97787.03
2023-01-10T08:52:08.008Z,97802.78
2023-01-10T08:56:11.183Z,97803.28
2023-01-10T09:00:15.198Z,97817.34
2023-01-10T09:04:19.207Z,97816.16
2023-01-10T09:08:22.606Z,97810.00
2023-01-10T09:12:42.662Z,97813.34
2023-01-10T09:16:46.266Z,97818.38
2023-01-10T09:20:51.427Z,97839.00
2023-01-10T09:24:54.105Z,97832.63
2023-01-10T09:28:56.701Z,97851.41
2023-01-10T09:33:00.271Z,97851.56
2023-01-10T09:37:04.289Z,97858.25
2023-01-10T09:41:24.457Z,97851.06
2023-01-10T09:45:36.442Z,97843.91
2023-01-10T09:49:49.398Z,97873.72
2023-01-10T09:54:10.109Z,97890.78
2023-01-10T09:58:16.784Z,97896.44
2023-01-10T10:02:27.411Z,97901.78
2023-01-10T10:06:30.113Z,97904.75
2023-01-10T10:10:40.372Z,97903.22
2023-01-10T10:14:54.628Z,97901.84
2023-01-10T10:19:10.419Z,97900.31
2023-01-10T10:23:23.683Z,97900.84
2023-01-10T10:27:34.572Z,97912.06
2023-01-10T10:32:07.141Z,97912.06
2023-01-10T10:36:16.557Z,97890.31
2023-01-10T10:40:22.027Z,97887.19
2023-01-10T10:44:40.363Z,97913.31
2023-01-10T10:48:51.713Z,97894.72
2023-01-10T10:52:54.593Z,97888.53
2023-01-10T10:56:58.585Z,97891.72
2023-01-10T11:01:03.078Z,97900.75
2023-01-10T11:05:10.118Z,97887.56
2023-01-10T11:09:14.102Z,97884.22
2023-01-10T11:13:21.799Z,97885.91
2023-01-10T11:17:27.414Z,97878.88
2023-01-10T11:21:30.197Z,97904.47
2023-01-10T11:25:33.454Z,97910.03
2023-01-10T11:29:40.598Z,97927.22
2023-01-10T11:33:44.894Z,97942.81
2023-01-10T11:38:00.793Z,97937.63
2023-01-10T11:42:30.708Z,97942.31
2023-01-10T11:46:33.601Z,97948.81
2023-01-10T11:50:40.987Z,97956.34
